createdAt,value
2022-12-18T00:03:09.989Z,60
2022-12-18T00:13:10.215Z,60
2022-12-18T00:23:09.938Z,60
2022-12-18T00:33:09.999Z,60.5
2022-12-18T00:43:09.899Z,60.5
2022-12-18T00:53:09.995Z,62
2022-12-18T01:03:00.242Z,61
2022-12-18T01:13:00.289Z,62
2022-12-18T01:23:00.161Z,62
2022-12-18T01:33:00.239Z,62
2022-12-18T01:43:00.351Z,62
2022-12-18T01:53:00.230Z,62
2022-12-18T02:03:00.442Z,62
2022-12-18T02:13:00.342Z,62
2022-12-18T02:23:00.322Z,62
2022-12-18T02:33:00.341Z,62
2022-12-18T02:43:00.330Z,62
2022-12-18T02:53:00.339Z,62
2022-12-18T03:03:00.472Z,62
2022-12-18T03:13:00.543Z,62
2022-12-18T03:23:00.298Z,62
2022-12-18T03:33:00.680Z,62
2022-12-18T03:43:00.322Z,62
2022-12-18T03:53:00.540Z,62
2022-12-18T04:03:00.338Z,62
2022-12-18T04:13:00.532Z,62
2022-12-18T04:23:00.323Z,62
2022-12-18T04:33:00.534Z,62
2022-12-18T04:43:00.360Z,62
2022-12-18T04:53:00.554Z,62
2022-12-18T05:03:00.655Z,62
2022-12-18T05:13:01.148Z,62
2022-12-18T05:23:00.366Z,62
2022-12-18T05:33:00.571Z,62
2022-12-18T05:43:00.586Z,62
2022-12-18T05:53:00.618Z,62
2022-12-18T06:03:00.715Z,62
2022-12-18T06:13:00.585Z,62
2022-12-18T06:23:00.561Z,62
2022-12-18T06:33:00.588Z,62
2022-12-18T06:43:00.573Z,62
2022-12-18T06:53:05.527Z,62
2022-12-18T07:03:00.728Z,62
2022-12-18T07:13:00.644Z,62
2022-12-18T07:23:00.674Z,62
2022-12-18T07:33:00.652Z,62
2022-12-18T07:43:00.674Z,62
2022-12-18T07:53:00.657Z,62
2022-12-18T08:03:00.810Z,62
2022-12-18T08:13:04.793Z,62
2022-12-18T08:23:00.687Z,62
2022-12-18T08:33:00.636Z,62
2022-12-18T08:43:00.859Z,62
2022-12-18T08:53:00.637Z,62
2022-12-18T09:03:00.948Z,62
2022-12-18T09:13:00.637Z,62
2022-12-18T09:23:00.867Z,62
2022-12-18T09:33:00.618Z,62
2022-12-18T09:43:00.841Z,62
2022-12-18T09:53:00.686Z,62
2022-12-18T10:03:00.964Z,62
2022-12-18T10:13:04.421Z,62
2022-12-18T10:23:00.980Z,62
2022-12-18T10:33:00.875Z,62
2022-12-18T10:43:00.994Z,62
2022-12-18T10:53:00.874Z,62
2022-12-18T11:03:00.988Z,62
2022-12-18T11:13:00.844Z,62
2022-12-18T11:23:06.702Z,62
2022-12-18T11:33:06.873Z,62
2022-12-18T11:43:01.079Z,62
2022-12-18T11:53:05.781Z,62
2022-12-18T12:03:01.139Z,62
2022-12-18T12:13:00.840Z,62
2022-12-18T12:23:01.067Z,62
2022-12-18T12:33:00.843Z,62
2022-12-18T12:43:01.044Z,62
2022-12-18T12:53:00.813Z,62
2022-12-18T13:03:01.136Z,67.5
2022-12-18T13:13:01.054Z,68
2022-12-18T13:23:02.426Z,68.5
2022-12-18T13:33:02.429Z,68.5
2022-12-18T13:43:01.048Z,70
2022-12-18T13:53:01.033Z,72
2022-12-18T14:03:02.531Z,72.5
2022-12-18T14:13:03.142Z,72.5
2022-12-18T14:23:01.025Z,72.5
2022-12-18T14:33:01.017Z,72.5
2022-12-18T14:43:01.204Z,74
2022-12-18T14:53:01.083Z,74
2022-12-18T15:03:01.437Z,73
2022-12-18T15:13:00.993Z,74
2022-12-18T15:23:01.192Z,74
2022-12-18T15:33:00.974Z,74
2022-12-18T15:43:01.219Z,74
2022-12-18T15:53:01.198Z,74
2022-12-18T16:03:01.317Z,73.5
2022-12-18T16:13:01.164Z,74
2022-12-18T16:23:01.184Z,73
2022-12-18T16:33:01.164Z,72
2022-12-18T16:43:01.204Z,72
2022-12-18T16:53:01.180Z,72
2022-12-18T17:03:01.321Z,72
2022-12-18T17:13:01.210Z,74
2022-12-18T17:23:01.215Z,74
2022-12-18T17:33:01.206Z,76
2022-12-18T17:43:01.229Z,76
2022-12-18T17:53:01.241Z,74.5
2022-12-18T18:03:01.431Z,76
2022-12-18T18:13:01.243Z,78
2022-12-18T18:23:01.447Z,76.5
2022-12-18T18:33:01.198Z,78
2022-12-18T18:43:07.248Z,77
2022-12-18T18:53:01.347Z,77
2022-12-18T19:03:01.414Z,78.5
2022-12-18T19:13:01.311Z,80
2022-12-18T19:23:01.383Z,78
2022-12-18T19:33:09.678Z,77
2022-12-18T19:43:01.314Z,77
2022-12-18T19:53:01.532Z,78
2022-12-18T20:03:07.711Z,78
2022-12-18T20:13:01.504Z,78
2022-12-18T20:23:01.302Z,78
2022-12-18T20:33:01.535Z,78
2022-12-18T20:43:01.471Z,78
2022-12-18T20:53:01.529Z,80
2022-12-18T21:03:01.552Z,80
2022-12-18T21:13:03.236Z,80
2022-12-18T21:23:03.454Z,80
2022-12-18T21:33:01.529Z,81
2022-12-18T21:43:01.488Z,81.5
2022-12-18T21:53:01.601Z,80.5
2022-12-18T22:03:15.598Z,80.5
2022-12-18T22:13:01.513Z,82
2022-12-18T22:23:04.387Z,83.5
2022-12-18T22:33:01.698Z,84
2022-12-18T22:43:01.459Z,84
2022-12-18T22:53:01.666Z,82.5
2022-12-18T23:03:01.737Z,82.5
2022-12-18T23:13:01.698Z,82.5
2022-12-18T23:23:01.462Z,82.5
2022-12-18T23:33:01.665Z,82.5
2022-12-18T23:43:01.645Z,83
2022-12-18T23:53:05.205Z,82.5
